sensor_id;sensor_type;location;lat;lon;timestamp;P1;durP1;ratioP1;P2;durP2;ratioP2
52268;SDS011;38224;50.950;4.100;2023-07-31T00:00:22;14.43;;;5.50;;
52268;SDS011;38224;50.950;4.100;2023-07-31T00:02:47;18.63;;;6.00;;
52268;SDS011;38224;50.950;4.100;2023-07-31T00:05:12;22.00;;;6.33;;
52268;SDS011;38224;50.950;4.100;2023-07-31T00:07:37;27.07;;;7.33;;
52268;SDS011;38224;50.950;4.100;2023-07-31T00:10:03;19.57;;;6.27;;
52268;SDS011;38224;50.950;4.100;2023-07-31T00:12:28;22.85;;;5.97;;
52268;SDS011;38224;50.950;4.100;2023-07-31T00:14:53;21.97;;;5.27;;
52268;SDS011;38224;50.950;4.100;2023-07-31T00:17:19;25.48;;;5.88;;
52268;SDS011;38224;50.950;4.100;2023-07-31T00:19:44;19.15;;;5.63;;
52268;SDS011;38224;50.950;4.100;2023-07-31T00:22:11;16.00;;;6.53;;
52268;SDS011;38224;50.950;4.100;2023-07-31T00:24:36;23.42;;;6.65;;
52268;SDS011;38224;50.950;4.100;2023-07-31T00:27:01;21.03;;;5.50;;
52268;SDS011;38224;50.950;4.100;2023-07-31T00:29:27;20.83;;;5.88;;
52268;SDS011;38224;50.950;4.100;2023-07-31T00:31:52;19.33;;;5.88;;
52268;SDS011;38224;50.950;4.100;2023-07-31T00:34:17;23.07;;;6.37;;
52268;SDS011;38224;50.950;4.100;2023-07-31T00:36:42;19.63;;;5.87;;
52268;SDS011;38224;50.950;4.100;2023-07-31T00:39:07;20.30;;;5.90;;
52268;SDS011;38224;50.950;4.100;2023-07-31T00:41:33;19.17;;;7.07;;
52268;SDS011;38224;50.950;4.100;2023-07-31T00:43:58;22.37;;;5.90;;
52268;SDS011;38224;50.950;4.100;2023-07-31T00:46:23;25.50;;;5.77;;
52268;SDS011;38224;50.950;4.100;2023-07-31T00:48:49;16.13;;;5.53;;
52268;SDS011;38224;50.950;4.100;2023-07-31T00:51:14;19.48;;;6.00;;
52268;SDS011;38224;50.950;4.100;2023-07-31T00:53:40;20.05;;;6.20;;
52268;SDS011;38224;50.950;4.100;2023-07-31T00:56:05;25.15;;;5.90;;
52268;SDS011;38224;50.950;4.100;2023-07-31T00:58:31;24.25;;;7.50;;
52268;SDS011;38224;50.950;4.100;2023-07-31T01:00:56;31.98;;;6.15;;
52268;SDS011;38224;50.950;4.100;2023-07-31T01:03:21;15.10;;;5.90;;
52268;SDS011;38224;50.950;4.100;2023-07-31T01:13:26;19.40;;;5.77;;
52268;SDS011;38224;50.950;4.100;2023-07-31T01:15:51;18.03;;;5.53;;
52268;SDS011;38224;50.950;4.100;2023-07-31T01:18:17;17.47;;;6.03;;
52268;SDS011;38224;50.950;4.100;2023-07-31T01:20:42;20.17;;;5.57;;
52268;SDS011;38224;50.950;4.100;2023-07-31T01:28:34;25.55;;;7.10;;
52268;SDS011;38224;50.950;4.100;2023-07-31T01:31:02;23.35;;;6.78;;
52268;SDS011;38224;50.950;4.100;2023-07-31T01:33:31;24.75;;;6.50;;
52268;SDS011;38224;50.950;4.100;2023-07-31T01:35:56;36.20;;;7.57;;
52268;SDS011;38224;50.950;4.100;2023-07-31T01:38:21;21.80;;;6.25;;
52268;SDS011;38224;50.950;4.100;2023-07-31T01:40:50;18.92;;;5.65;;
52268;SDS011;38224;50.950;4.100;2023-07-31T01:43:16;19.02;;;5.95;;
52268;SDS011;38224;50.950;4.100;2023-07-31T01:45:41;21.17;;;6.23;;
52268;SDS011;38224;50.950;4.100;2023-07-31T01:48:06;24.10;;;5.33;;
52268;SDS011;38224;50.950;4.100;2023-07-31T01:50:31;12.63;;;4.57;;
52268;SDS011;38224;50.950;4.100;2023-07-31T01:52:57;15.10;;;5.03;;
52268;SDS011;38224;50.950;4.100;2023-07-31T01:55:22;19.67;;;5.37;;
52268;SDS011;38224;50.950;4.100;2023-07-31T01:57:47;26.10;;;5.67;;
52268;SDS011;38224;50.950;4.100;2023-07-31T02:00:13;21.40;;;6.20;;
52268;SDS011;38224;50.950;4.100;2023-07-31T02:02:38;22.03;;;6.10;;
52268;SDS011;38224;50.950;4.100;2023-07-31T02:05:04;19.03;;;5.97;;
52268;SDS011;38224;50.950;4.100;2023-07-31T02:07:29;20.90;;;6.40;;
52268;SDS011;38224;50.950;4.100;2023-07-31T02:09:54;21.73;;;5.53;;
52268;SDS011;38224;50.950;4.100;2023-07-31T02:12:19;17.27;;;5.13;;
52268;SDS011;38224;50.950;4.100;2023-07-31T02:14:45;21.33;;;5.50;;
52268;SDS011;38224;50.950;4.100;2023-07-31T02:17:10;18.20;;;5.47;;
52268;SDS011;38224;50.950;4.100;2023-07-31T02:19:35;16.90;;;5.40;;
52268;SDS011;38224;50.950;4.100;2023-07-31T02:22:00;14.03;;;5.97;;
52268;SDS011;38224;50.950;4.100;2023-07-31T02:24:26;16.17;;;5.50;;
52268;SDS011;38224;50.950;4.100;2023-07-31T02:26:51;15.57;;;5.93;;
52268;SDS011;38224;50.950;4.100;2023-07-31T02:29:16;22.93;;;5.20;;
52268;SDS011;38224;50.950;4.100;2023-07-31T02:31:41;19.23;;;5.30;;
52268;SDS011;38224;50.950;4.100;2023-07-31T02:34:06;16.07;;;6.30;;
52268;SDS011;38224;50.950;4.100;2023-07-31T02:36:32;21.33;;;6.43;;
52268;SDS011;38224;50.950;4.100;2023-07-31T02:38:57;18.45;;;5.90;;
52268;SDS011;38224;50.950;4.100;2023-07-31T02:41:22;19.23;;;5.50;;
52268;SDS011;38224;50.950;4.100;2023-07-31T02:43:47;15.63;;;5.30;;
52268;SDS011;38224;50.950;4.100;2023-07-31T02:46:13;19.23;;;5.78;;
52268;SDS011;38224;50.950;4.100;2023-07-31T02:48:38;15.53;;;5.60;;
52268;SDS011;38224;50.950;4.100;2023-07-31T02:51:03;16.35;;;6.22;;
52268;SDS011;38224;50.950;4.100;2023-07-31T02:53:29;14.63;;;5.57;;
52268;SDS011;38224;50.950;4.100;2023-07-31T02:55:54;23.97;;;5.90;;
52268;SDS011;38224;50.950;4.100;2023-07-31T02:58:19;14.43;;;5.90;;
52268;SDS011;38224;50.950;4.100;2023-07-31T03:00:44;16.30;;;6.13;;
52268;SDS011;38224;50.950;4.100;2023-07-31T03:03:10;19.95;;;7.13;;
52268;SDS011;38224;50.950;4.100;2023-07-31T03:05:35;18.35;;;5.90;;
52268;SDS011;38224;50.950;4.100;2023-07-31T03:08:00;16.77;;;7.13;;
52268;SDS011;38224;50.950;4.100;2023-07-31T03:10:26;15.65;;;6.40;;
52268;SDS011;38224;50.950;4.100;2023-07-31T03:12:51;17.70;;;7.28;;
52268;SDS011;38224;50.950;4.100;2023-07-31T03:15:17;19.90;;;6.07;;
52268;SDS011;38224;50.950;4.100;2023-07-31T03:17:42;14.20;;;5.80;;
52268;SDS011;38224;50.950;4.100;2023-07-31T03:20:07;19.80;;;6.90;;
52268;SDS011;38224;50.950;4.100;2023-07-31T03:22:33;14.18;;;6.28;;
52268;SDS011;38224;50.950;4.100;2023-07-31T03:25:00;16.67;;;6.10;;
52268;SDS011;38224;50.950;4.100;2023-07-31T03:27:25;14.30;;;6.03;;
52268;SDS011;38224;50.950;4.100;2023-07-31T03:29:50;12.90;;;5.87;;
52268;SDS011;38224;50.950;4.100;2023-07-31T03:32:16;10.93;;;5.65;;
52268;SDS011;38224;50.950;4.100;2023-07-31T03:34:42;13.02;;;6.18;;
52268;SDS011;38224;50.950;4.100;2023-07-31T03:37:07;11.43;;;5.63;;
52268;SDS011;38224;50.950;4.100;2023-07-31T03:39:34;12.10;;;5.63;;
52268;SDS011;38224;50.950;4.100;2023-07-31T03:41:59;12.43;;;6.03;;
52268;SDS011;38224;50.950;4.100;2023-07-31T03:44:24;17.60;;;7.13;;
52268;SDS011;38224;50.950;4.100;2023-07-31T03:46:49;14.97;;;6.23;;
52268;SDS011;38224;50.950;4.100;2023-07-31T03:49:15;14.73;;;5.73;;
52268;SDS011;38224;50.950;4.100;2023-07-31T03:51:40;15.67;;;6.07;;
52268;SDS011;38224;50.950;4.100;2023-07-31T03:54:06;17.10;;;6.18;;
52268;SDS011;38224;50.950;4.100;2023-07-31T03:56:32;11.45;;;5.82;;
52268;SDS011;38224;50.950;4.100;2023-07-31T03:58:58;14.55;;;5.57;;
52268;SDS011;38224;50.950;4.100;2023-07-31T04:01:23;15.53;;;6.77;;
52268;SDS011;38224;50.950;4.100;2023-07-31T04:03:49;13.85;;;6.40;;
52268;SDS011;38224;50.950;4.100;2023-07-31T04:06:14;15.83;;;6.00;;
52268;SDS011;38224;50.950;4.100;2023-07-31T04:08:43;13.48;;;6.30;;
52268;SDS011;38224;50.950;4.100;2023-07-31T04:11:08;11.48;;;6.05;;
52268;SDS011;38224;50.950;4.100;2023-07-31T04:13:33;19.80;;;7.90;;
52268;SDS011;38224;50.950;4.100;2023-07-31T04:15:58;12.15;;;6.10;;
52268;SDS011;38224;50.950;4.100;2023-07-31T04:18:24;11.75;;;6.22;;
52268;SDS011;38224;50.950;4.100;2023-07-31T04:20:50;15.40;;;6.68;;
52268;SDS011;38224;50.950;4.100;2023-07-31T04:23:15;10.45;;;5.68;;
52268;SDS011;38224;50.950;4.100;2023-07-31T04:25:40;14.50;;;6.40;;
52268;SDS011;38224;50.950;4.100;2023-07-31T04:28:05;15.90;;;7.10;;
52268;SDS011;38224;50.950;4.100;2023-07-31T04:30:31;17.17;;;7.03;;
52268;SDS011;38224;50.950;4.100;2023-07-31T04:32:56;16.52;;;7.00;;
52268;SDS011;38224;50.950;4.100;2023-07-31T04:35:21;17.93;;;7.07;;
52268;SDS011;38224;50.950;4.100;2023-07-31T04:37:46;13.90;;;6.63;;
52268;SDS011;38224;50.950;4.100;2023-07-31T04:40:14;13.43;;;7.45;;
52268;SDS011;38224;50.950;4.100;2023-07-31T04:42:39;12.88;;;6.63;;
52268;SDS011;38224;50.950;4.100;2023-07-31T04:45:04;16.40;;;6.90;;
52268;SDS011;38224;50.950;4.100;2023-07-31T04:47:30;10.82;;;6.22;;
52268;SDS011;38224;50.950;4.100;2023-07-31T04:49:55;15.67;;;6.33;;
52268;SDS011;38224;50.950;4.100;2023-07-31T04:52:20;17.90;;;6.27;;
52268;SDS011;38224;50.950;4.100;2023-07-31T04:54:45;18.27;;;7.70;;
52268;SDS011;38224;50.950;4.100;2023-07-31T04:57:11;13.77;;;6.13;;
52268;SDS011;38224;50.950;4.100;2023-07-31T04:59:36;10.53;;;5.70;;
52268;SDS011;38224;50.950;4.100;2023-07-31T05:02:02;14.68;;;6.80;;
52268;SDS011;38224;50.950;4.100;2023-07-31T05:04:27;12.52;;;6.53;;
52268;SDS011;38224;50.950;4.100;2023-07-31T05:06:52;14.23;;;6.23;;
52268;SDS011;38224;50.950;4.100;2023-07-31T05:09:17;12.87;;;6.23;;
52268;SDS011;38224;50.950;4.100;2023-07-31T05:11:43;12.68;;;6.88;;
52268;SDS011;38224;50.950;4.100;2023-07-31T05:14:09;14.23;;;8.38;;
52268;SDS011;38224;50.950;4.100;2023-07-31T05:16:34;17.38;;;7.15;;
52268;SDS011;38224;50.950;4.100;2023-07-31T05:18:59;17.30;;;7.38;;
52268;SDS011;38224;50.950;4.100;2023-07-31T05:21:25;11.13;;;6.68;;
52268;SDS011;38224;50.950;4.100;2023-07-31T05:23:50;12.93;;;7.38;;
52268;SDS011;38224;50.950;4.100;2023-07-31T05:26:15;10.43;;;6.47;;
52268;SDS011;38224;50.950;4.100;2023-07-31T05:28:41;18.15;;;6.78;;
52268;SDS011;38224;50.950;4.100;2023-07-31T05:31:06;15.63;;;7.20;;
52268;SDS011;38224;50.950;4.100;2023-07-31T05:33:32;13.27;;;8.15;;
52268;SDS011;38224;50.950;4.100;2023-07-31T05:35:57;10.52;;;5.80;;
52268;SDS011;38224;50.950;4.100;2023-07-31T05:38:22;15.27;;;8.27;;
52268;SDS011;38224;50.950;4.100;2023-07-31T05:40:47;11.45;;;6.32;;
52268;SDS011;38224;50.950;4.100;2023-07-31T05:43:13;17.73;;;5.97;;
52268;SDS011;38224;50.950;4.100;2023-07-31T05:45:38;18.90;;;6.63;;
52268;SDS011;38224;50.950;4.100;2023-07-31T05:48:05;13.48;;;6.55;;
52268;SDS011;38224;50.950;4.100;2023-07-31T05:50:30;10.82;;;5.85;;
52268;SDS011;38224;50.950;4.100;2023-07-31T05:52:55;14.30;;;6.43;;
52268;SDS011;38224;50.950;4.100;2023-07-31T05:55:20;13.57;;;6.07;;
52268;SDS011;38224;50.950;4.100;2023-07-31T05:57:46;17.73;;;6.63;;
52268;SDS011;38224;50.950;4.100;2023-07-31T06:00:11;12.85;;;6.07;;
52268;SDS011;38224;50.950;4.100;2023-07-31T06:02:37;7.93;;;5.07;;
52268;SDS011;38224;50.950;4.100;2023-07-31T06:05:03;15.73;;;6.10;;
52268;SDS011;38224;50.950;4.100;2023-07-31T06:07:29;17.30;;;6.03;;
52268;SDS011;38224;50.950;4.100;2023-07-31T06:09:54;11.82;;;5.18;;
52268;SDS011;38224;50.950;4.100;2023-07-31T06:12:20;13.00;;;5.38;;
52268;SDS011;38224;50.950;4.100;2023-07-31T06:14:45;11.00;;;5.53;;
52268;SDS011;38224;50.950;4.100;2023-07-31T06:17:10;15.15;;;5.63;;
52268;SDS011;38224;50.950;4.100;2023-07-31T06:19:36;14.23;;;5.82;;
52268;SDS011;38224;50.950;4.100;2023-07-31T06:22:01;10.57;;;4.70;;
52268;SDS011;38224;50.950;4.100;2023-07-31T06:24:27;12.35;;;5.20;;
52268;SDS011;38224;50.950;4.100;2023-07-31T06:26:52;15.60;;;5.25;;
52268;SDS011;38224;50.950;4.100;2023-07-31T06:29:18;9.63;;;4.70;;
52268;SDS011;38224;50.950;4.100;2023-07-31T06:31:43;13.83;;;5.83;;
52268;SDS011;38224;50.950;4.100;2023-07-31T06:34:08;11.57;;;5.23;;
52268;SDS011;38224;50.950;4.100;2023-07-31T06:36:33;11.07;;;5.03;;
52268;SDS011;38224;50.950;4.100;2023-07-31T06:38:59;10.40;;;4.33;;
52268;SDS011;38224;50.950;4.100;2023-07-31T06:41:24;11.67;;;4.50;;
52268;SDS011;38224;50.950;4.100;2023-07-31T06:43:49;9.00;;;4.80;;
52268;SDS011;38224;50.950;4.100;2023-07-31T06:46:14;9.37;;;4.97;;
52268;SDS011;38224;50.950;4.100;2023-07-31T06:48:39;13.73;;;5.60;;
52268;SDS011;38224;50.950;4.100;2023-07-31T06:51:05;12.57;;;4.63;;
52268;SDS011;38224;50.950;4.100;2023-07-31T06:53:30;7.40;;;4.13;;
52268;SDS011;38224;50.950;4.100;2023-07-31T06:55:55;9.30;;;4.20;;
52268;SDS011;38224;50.950;4.100;2023-07-31T06:58:20;12.00;;;4.30;;
52268;SDS011;38224;50.950;4.100;2023-07-31T07:00:46;9.33;;;3.33;;
52268;SDS011;38224;50.950;4.100;2023-07-31T07:03:11;8.47;;;4.07;;
52268;SDS011;38224;50.950;4.100;2023-07-31T07:05:36;12.50;;;4.43;;
52268;SDS011;38224;50.950;4.100;2023-07-31T07:08:01;12.73;;;4.70;;
52268;SDS011;38224;50.950;4.100;2023-07-31T07:10:27;11.27;;;3.93;;
52268;SDS011;38224;50.950;4.100;2023-07-31T07:12:52;8.95;;;3.75;;
52268;SDS011;38224;50.950;4.100;2023-07-31T07:15:17;12.15;;;4.05;;
52268;SDS011;38224;50.950;4.100;2023-07-31T07:17:43;8.97;;;4.10;;
52268;SDS011;38224;50.950;4.100;2023-07-31T07:20:08;8.77;;;3.90;;
52268;SDS011;38224;50.950;4.100;2023-07-31T07:22:34;11.38;;;4.00;;
52268;SDS011;38224;50.950;4.100;2023-07-31T07:24:59;14.20;;;4.17;;
52268;SDS011;38224;50.950;4.100;2023-07-31T07:27:24;14.67;;;5.00;;
52268;SDS011;38224;50.950;4.100;2023-07-31T07:29:50;9.93;;;4.07;;
52268;SDS011;38224;50.950;4.100;2023-07-31T07:32:15;10.88;;;3.95;;
52268;SDS011;38224;50.950;4.100;2023-07-31T07:34:40;10.82;;;3.80;;
52268;SDS011;38224;50.950;4.100;2023-07-31T07:37:06;11.98;;;4.18;;
52268;SDS011;38224;50.950;4.100;2023-07-31T07:39:31;10.97;;;4.00;;
52268;SDS011;38224;50.950;4.100;2023-07-31T07:41:56;11.70;;;4.17;;
52268;SDS011;38224;50.950;4.100;2023-07-31T07:44:21;11.10;;;4.10;;
52268;SDS011;38224;50.950;4.100;2023-07-31T07:46:47;13.80;;;5.20;;
52268;SDS011;38224;50.950;4.100;2023-07-31T07:49:12;9.67;;;4.23;;
52268;SDS011;38224;50.950;4.100;2023-07-31T07:51:38;9.53;;;3.63;;
52268;SDS011;38224;50.950;4.100;2023-07-31T07:54:03;8.40;;;3.33;;
52268;SDS011;38224;50.950;4.100;2023-07-31T07:56:28;6.87;;;3.00;;
52268;SDS011;38224;50.950;4.100;2023-07-31T07:58:54;7.40;;;3.60;;
52268;SDS011;38224;50.950;4.100;2023-07-31T08:01:19;7.18;;;3.20;;
52268;SDS011;38224;50.950;4.100;2023-07-31T08:03:44;10.18;;;3.80;;
52268;SDS011;38224;50.950;4.100;2023-07-31T08:06:10;11.45;;;4.22;;
52268;SDS011;38224;50.950;4.100;2023-07-31T08:08:35;8.30;;;3.85;;
52268;SDS011;38224;50.950;4.100;2023-07-31T08:11:01;7.70;;;3.53;;
52268;SDS011;38224;50.950;4.100;2023-07-31T08:13:26;11.02;;;3.97;;
52268;SDS011;38224;50.950;4.100;2023-07-31T08:15:52;10.70;;;3.90;;
52268;SDS011;38224;50.950;4.100;2023-07-31T08:18:17;9.27;;;3.45;;
52268;SDS011;38224;50.950;4.100;2023-07-31T08:20:42;9.45;;;4.32;;
52268;SDS011;38224;50.950;4.100;2023-07-31T08:23:08;7.63;;;3.95;;
52268;SDS011;38224;50.950;4.100;2023-07-31T08:25:37;9.85;;;3.83;;
52268;SDS011;38224;50.950;4.100;2023-07-31T08:28:02;8.20;;;3.47;;
52268;SDS011;38224;50.950;4.100;2023-07-31T08:30:28;7.28;;;3.80;;
52268;SDS011;38224;50.950;4.100;2023-07-31T08:32:53;7.90;;;3.47;;
52268;SDS011;38224;50.950;4.100;2023-07-31T08:35:18;11.87;;;3.80;;
52268;SDS011;38224;50.950;4.100;2023-07-31T08:37:44;10.45;;;3.42;;
52268;SDS011;38224;50.950;4.100;2023-07-31T08:40:09;10.63;;;3.53;;
52268;SDS011;38224;50.950;4.100;2023-07-31T08:42:42;8.20;;;3.30;;
52268;SDS011;38224;50.950;4.100;2023-07-31T08:45:08;8.48;;;3.42;;
52268;SDS011;38224;50.950;4.100;2023-07-31T08:47:33;8.23;;;3.20;;
52268;SDS011;38224;50.950;4.100;2023-07-31T08:49:58;9.23;;;3.90;;
52268;SDS011;38224;50.950;4.100;2023-07-31T08:52:24;9.55;;;3.78;;
52268;SDS011;38224;50.950;4.100;2023-07-31T08:54:49;10.13;;;3.40;;
52268;SDS011;38224;50.950;4.100;2023-07-31T08:57:15;10.57;;;4.38;;
52268;SDS011;38224;50.950;4.100;2023-07-31T08:59:40;8.80;;;4.03;;
52268;SDS011;38224;50.950;4.100;2023-07-31T09:02:07;9.20;;;4.25;;
52268;SDS011;38224;50.950;4.100;2023-07-31T09:04:33;10.35;;;3.97;;
52268;SDS011;38224;50.950;4.100;2023-07-31T09:07:00;6.75;;;3.35;;
52268;SDS011;38224;50.950;4.100;2023-07-31T09:09:25;10.00;;;4.20;;
52268;SDS011;38224;50.950;4.100;2023-07-31T09:11:51;11.50;;;3.87;;
52268;SDS011;38224;50.950;4.100;2023-07-31T09:14:17;7.90;;;3.10;;
52268;SDS011;38224;50.950;4.100;2023-07-31T09:16:55;7.80;;;3.90;;
52268;SDS011;38224;50.950;4.100;2023-07-31T09:19:32;9.52;;;3.78;;
52268;SDS011;38224;50.950;4.100;2023-07-31T09:21:58;6.75;;;3.40;;
52268;SDS011;38224;50.950;4.100;2023-07-31T09:24:30;10.23;;;4.10;;
52268;SDS011;38224;50.950;4.100;2023-07-31T09:26:56;9.87;;;4.37;;
52268;SDS011;38224;50.950;4.100;2023-07-31T09:29:23;11.73;;;4.35;;
52268;SDS011;38224;50.950;4.100;2023-07-31T09:31:49;8.60;;;3.78;;
52268;SDS011;38224;50.950;4.100;2023-07-31T09:34:15;9.57;;;4.32;;
52268;SDS011;38224;50.950;4.100;2023-07-31T09:36:41;15.00;;;4.75;;
52268;SDS011;38224;50.950;4.100;2023-07-31T09:39:07;13.02;;;4.65;;
52268;SDS011;38224;50.950;4.100;2023-07-31T09:41:36;17.40;;;5.30;;
52268;SDS011;38224;50.950;4.100;2023-07-31T09:44:01;6.30;;;3.63;;
52268;SDS011;38224;50.950;4.100;2023-07-31T09:46:26;9.17;;;3.60;;
52268;SDS011;38224;50.950;4.100;2023-07-31T09:48:52;7.03;;;4.20;;
52268;SDS011;38224;50.950;4.100;2023-07-31T09:51:17;8.67;;;4.10;;
52268;SDS011;38224;50.950;4.100;2023-07-31T09:53:50;16.85;;;4.85;;
52268;SDS011;38224;50.950;4.100;2023-07-31T09:56:16;10.82;;;4.28;;
52268;SDS011;38224;50.950;4.100;2023-07-31T09:58:42;9.52;;;4.38;;
52268;SDS011;38224;50.950;4.100;2023-07-31T10:01:07;11.43;;;4.90;;
52268;SDS011;38224;50.950;4.100;2023-07-31T10:03:32;6.78;;;3.88;;
52268;SDS011;38224;50.950;4.100;2023-07-31T10:05:58;18.30;;;6.38;;
52268;SDS011;38224;50.950;4.100;2023-07-31T10:08:29;9.13;;;4.60;;
52268;SDS011;38224;50.950;4.100;2023-07-31T10:10:55;11.68;;;5.28;;
52268;SDS011;38224;50.950;4.100;2023-07-31T10:13:22;11.00;;;5.68;;
52268;SDS011;38224;50.950;4.100;2023-07-31T10:15:47;12.15;;;4.78;;
52268;SDS011;38224;50.950;4.100;2023-07-31T10:18:13;8.82;;;4.63;;
52268;SDS011;38224;50.950;4.100;2023-07-31T10:20:38;11.55;;;5.10;;
52268;SDS011;38224;50.950;4.100;2023-07-31T10:23:04;11.68;;;4.75;;
52268;SDS011;38224;50.950;4.100;2023-07-31T10:25:30;10.57;;;4.57;;
52268;SDS011;38224;50.950;4.100;2023-07-31T10:27:57;10.80;;;5.00;;
52268;SDS011;38224;50.950;4.100;2023-07-31T10:30:24;11.60;;;5.20;;
52268;SDS011;38224;50.950;4.100;2023-07-31T10:32:51;12.15;;;5.18;;
52268;SDS011;38224;50.950;4.100;2023-07-31T10:35:17;11.55;;;4.60;;
52268;SDS011;38224;50.950;4.100;2023-07-31T10:37:43;9.10;;;5.03;;
52268;SDS011;38224;50.950;4.100;2023-07-31T10:40:12;11.52;;;4.88;;
52268;SDS011;38224;50.950;4.100;2023-07-31T10:42:45;14.07;;;5.35;;
52268;SDS011;38224;50.950;4.100;2023-07-31T10:45:10;11.38;;;4.72;;
52268;SDS011;38224;50.950;4.100;2023-07-31T10:48:18;13.38;;;5.38;;
52268;SDS011;38224;50.950;4.100;2023-07-31T10:50:25;7.78;;;4.72;;
52268;SDS011;38224;50.950;4.100;2023-07-31T10:52:51;9.68;;;5.03;;
52268;SDS011;38224;50.950;4.100;2023-07-31T10:58:10;10.30;;;5.10;;
52268;SDS011;38224;50.950;4.100;2023-07-31T11:00:37;13.90;;;4.70;;
52268;SDS011;38224;50.950;4.100;2023-07-31T11:08:27;14.23;;;5.32;;
52268;SDS011;38224;50.950;4.100;2023-07-31T11:13:28;12.40;;;4.93;;
52268;SDS011;38224;50.950;4.100;2023-07-31T11:15:54;12.20;;;5.00;;
52268;SDS011;38224;50.950;4.100;2023-07-31T11:18:19;9.97;;;4.57;;
52268;SDS011;38224;50.950;4.100;2023-07-31T11:20:44;9.57;;;5.20;;
52268;SDS011;38224;50.950;4.100;2023-07-31T11:23:09;12.63;;;5.53;;
52268;SDS011;38224;50.950;4.100;2023-07-31T11:25:35;12.65;;;5.38;;
52268;SDS011;38224;50.950;4.100;2023-07-31T11:28:04;11.13;;;5.28;;
52268;SDS011;38224;50.950;4.100;2023-07-31T11:30:30;13.25;;;5.22;;
52268;SDS011;38224;50.950;4.100;2023-07-31T11:32:55;11.60;;;6.20;;
52268;SDS011;38224;50.950;4.100;2023-07-31T11:35:21;11.90;;;5.63;;
52268;SDS011;38224;50.950;4.100;2023-07-31T11:37:47;10.85;;;5.55;;
52268;SDS011;38224;50.950;4.100;2023-07-31T11:40:13;15.52;;;6.55;;
52268;SDS011;38224;50.950;4.100;2023-07-31T11:42:39;12.05;;;5.30;;
52268;SDS011;38224;50.950;4.100;2023-07-31T11:45:04;12.85;;;5.30;;
52268;SDS011;38224;50.950;4.100;2023-07-31T11:47:31;25.13;;;6.88;;
52268;SDS011;38224;50.950;4.100;2023-07-31T11:49:59;18.05;;;5.78;;
52268;SDS011;38224;50.950;4.100;2023-07-31T11:52:24;10.45;;;4.63;;
52268;SDS011;38224;50.950;4.100;2023-07-31T11:54:50;16.80;;;5.80;;
52268;SDS011;38224;50.950;4.100;2023-07-31T11:57:15;12.15;;;4.82;;
52268;SDS011;38224;50.950;4.100;2023-07-31T11:59:41;8.90;;;4.57;;
52268;SDS011;38224;50.950;4.100;2023-07-31T12:02:06;8.93;;;5.03;;
52268;SDS011;38224;50.950;4.100;2023-07-31T12:04:32;11.77;;;5.20;;
52268;SDS011;38224;50.950;4.100;2023-07-31T12:06:57;12.15;;;4.75;;
52268;SDS011;38224;50.950;4.100;2023-07-31T12:09:25;11.85;;;4.80;;
52268;SDS011;38224;50.950;4.100;2023-07-31T12:11:51;10.15;;;4.78;;
52268;SDS011;38224;50.950;4.100;2023-07-31T12:14:26;12.68;;;5.30;;
52268;SDS011;38224;50.950;4.100;2023-07-31T12:17:00;12.88;;;5.13;;
52268;SDS011;38224;50.950;4.100;2023-07-31T12:19:25;14.88;;;5.00;;
52268;SDS011;38224;50.950;4.100;2023-07-31T12:21:55;15.70;;;5.45;;
52268;SDS011;38224;50.950;4.100;2023-07-31T12:24:20;15.35;;;5.60;;
52268;SDS011;38224;50.950;4.100;2023-07-31T12:26:46;11.07;;;4.67;;
52268;SDS011;38224;50.950;4.100;2023-07-31T12:29:11;11.40;;;4.60;;
52268;SDS011;38224;50.950;4.100;2023-07-31T12:31:37;20.23;;;5.43;;
52268;SDS011;38224;50.950;4.100;2023-07-31T12:34:02;11.90;;;5.47;;
52268;SDS011;38224;50.950;4.100;2023-07-31T12:36:27;10.77;;;4.70;;
52268;SDS011;38224;50.950;4.100;2023-07-31T12:38:54;14.10;;;5.47;;
52268;SDS011;38224;50.950;4.100;2023-07-31T12:41:21;11.93;;;4.93;;
52268;SDS011;38224;50.950;4.100;2023-07-31T12:43:46;11.03;;;5.40;;
52268;SDS011;38224;50.950;4.100;2023-07-31T12:46:11;8.48;;;4.50;;
52268;SDS011;38224;50.950;4.100;2023-07-31T12:48:37;10.73;;;5.28;;
52268;SDS011;38224;50.950;4.100;2023-07-31T12:51:03;13.50;;;4.47;;
52268;SDS011;38224;50.950;4.100;2023-07-31T12:53:28;13.80;;;4.65;;
52268;SDS011;38224;50.950;4.100;2023-07-31T12:55:55;12.25;;;5.70;;
52268;SDS011;38224;50.950;4.100;2023-07-31T12:58:20;11.73;;;5.65;;
52268;SDS011;38224;50.950;4.100;2023-07-31T13:00:45;11.70;;;5.00;;
52268;SDS011;38224;50.950;4.100;2023-07-31T13:03:11;13.25;;;5.40;;
52268;SDS011;38224;50.950;4.100;2023-07-31T13:05:37;9.95;;;4.13;;
52268;SDS011;38224;50.950;4.100;2023-07-31T13:08:02;8.47;;;3.73;;
52268;SDS011;38224;50.950;4.100;2023-07-31T13:10:27;6.88;;;4.32;;
52268;SDS011;38224;50.950;4.100;2023-07-31T13:12:53;10.77;;;4.85;;
52268;SDS011;38224;50.950;4.100;2023-07-31T13:15:18;8.85;;;4.30;;
52268;SDS011;38224;50.950;4.100;2023-07-31T13:17:44;9.23;;;4.67;;
52268;SDS011;38224;50.950;4.100;2023-07-31T13:20:09;11.07;;;4.10;;
52268;SDS011;38224;50.950;4.100;2023-07-31T13:22:35;6.15;;;3.67;;
52268;SDS011;38224;50.950;4.100;2023-07-31T13:25:00;9.73;;;4.10;;
52268;SDS011;38224;50.950;4.100;2023-07-31T13:27:25;6.50;;;4.10;;
52268;SDS011;38224;50.950;4.100;2023-07-31T13:29:51;8.90;;;4.07;;
52268;SDS011;38224;50.950;4.100;2023-07-31T13:32:17;4.70;;;3.13;;
52268;SDS011;38224;50.950;4.100;2023-07-31T13:34:43;9.88;;;4.22;;
52268;SDS011;38224;50.950;4.100;2023-07-31T13:37:09;5.50;;;3.70;;
52268;SDS011;38224;50.950;4.100;2023-07-31T13:39:34;7.03;;;3.35;;
52268;SDS011;38224;50.950;4.100;2023-07-31T13:41:59;5.53;;;3.30;;
52268;SDS011;38224;50.950;4.100;2023-07-31T13:44:25;6.45;;;3.22;;
52268;SDS011;38224;50.950;4.100;2023-07-31T13:46:51;7.75;;;3.20;;
52268;SDS011;38224;50.950;4.100;2023-07-31T13:49:16;6.93;;;3.45;;
52268;SDS011;38224;50.950;4.100;2023-07-31T13:51:41;7.80;;;3.57;;
52268;SDS011;38224;50.950;4.100;2023-07-31T13:54:06;8.80;;;3.90;;
52268;SDS011;38224;50.950;4.100;2023-07-31T13:56:32;7.18;;;3.72;;
52268;SDS011;38224;50.950;4.100;2023-07-31T13:58:57;7.07;;;3.70;;
52268;SDS011;38224;50.950;4.100;2023-07-31T14:01:22;11.50;;;4.30;;
52268;SDS011;38224;50.950;4.100;2023-07-31T14:03:48;9.50;;;4.40;;
52268;SDS011;38224;50.950;4.100;2023-07-31T14:06:13;8.97;;;4.70;;
52268;SDS011;38224;50.950;4.100;2023-07-31T14:08:38;8.02;;;4.40;;
52268;SDS011;38224;50.950;4.100;2023-07-31T14:11:03;12.77;;;5.10;;
52268;SDS011;38224;50.950;4.100;2023-07-31T14:13:29;13.73;;;5.33;;
52268;SDS011;38224;50.950;4.100;2023-07-31T14:15:54;8.85;;;4.95;;
52268;SDS011;38224;50.950;4.100;2023-07-31T14:18:19;11.23;;;5.80;;
52268;SDS011;38224;50.950;4.100;2023-07-31T14:20:44;11.35;;;5.15;;
52268;SDS011;38224;50.950;4.100;2023-07-31T14:23:10;12.10;;;5.30;;
52268;SDS011;38224;50.950;4.100;2023-07-31T14:25:35;7.03;;;4.82;;
52268;SDS011;38224;50.950;4.100;2023-07-31T14:28:00;10.80;;;5.13;;
52268;SDS011;38224;50.950;4.100;2023-07-31T14:30:26;12.10;;;5.33;;
52268;SDS011;38224;50.950;4.100;2023-07-31T14:32:51;9.55;;;4.72;;
52268;SDS011;38224;50.950;4.100;2023-07-31T14:35:16;11.13;;;4.65;;
52268;SDS011;38224;50.950;4.100;2023-07-31T14:37:42;9.27;;;4.83;;
52268;SDS011;38224;50.950;4.100;2023-07-31T14:40:08;9.82;;;4.28;;
52268;SDS011;38224;50.950;4.100;2023-07-31T14:42:34;9.98;;;4.50;;
52268;SDS011;38224;50.950;4.100;2023-07-31T14:45:00;9.43;;;4.38;;
52268;SDS011;38224;50.950;4.100;2023-07-31T14:47:25;6.97;;;4.15;;
52268;SDS011;38224;50.950;4.100;2023-07-31T14:49:50;9.03;;;4.47;;
52268;SDS011;38224;50.950;4.100;2023-07-31T14:52:15;9.83;;;4.00;;